Time;durP1;ratioP1;P1;durP2;ratioP2;P2;SDS_P1;SDS_P2;PMS_P1;PMS_P2;Temp;Humidity;BMP_temperature;BMP_pressure;BME280_temperature;BME280_humidity;BME280_pressure;Samples;Min_cycle;Max_cycle;Signal;HPM_P1;HPM_P2
2022/09/08 00:00:26;;;;;;;24.55;15.48;;;;;;;22.34;100.00;100050.94;5016058;28;20025;-92
2022/09/08 00:02:53;;;;;;;25.63;14.60;;;;;;;22.42;100.00;100069.41;5015390;28;20539;-91
2022/09/08 00:05:23;;;;;;;25.15;15.30;;;;;;;22.44;100.00;100077.25;5015875;28;20038;-92
2022/09/08 00:07:51;;;;;;;31.80;18.98;;;;;;;22.49;100.00;100067.34;5014879;28;20509;-90
2022/09/08 00:10:17;;;;;;;28.73;18.73;;;;;;;22.50;100.00;100066.28;4998046;28;20060;-89
2022/09/08 00:12:44;;;;;;;27.30;17.60;;;;;;;22.39;100.00;100077.19;5014663;28;20037;-90
2022/09/08 00:15:11;;;;;;;31.38;16.70;;;;;;;22.32;100.00;100096.28;5016140;28;20632;-91
2022/09/08 00:17:38;;;;;;;33.25;17.60;;;;;;;22.23;100.00;100110.44;5016264;28;20036;-91
2022/09/08 00:20:05;;;;;;;23.05;14.95;;;;;;;22.31;100.00;100104.59;5016103;28;20627;-91
2022/09/08 00:22:31;;;;;;;31.08;16.88;;;;;;;22.22;100.00;100089.91;5014956;28;20030;-91
2022/09/08 00:24:57;;;;;;;30.10;15.02;;;;;;;22.32;100.00;100095.44;5013825;28;20479;-91
2022/09/08 00:27:22;;;;;;;27.58;15.40;;;;;;;22.17;100.00;100101.47;5014986;28;20125;-89
2022/09/08 00:29:48;;;;;;;27.73;15.88;;;;;;;22.15;100.00;100090.09;5013801;28;20045;-91
2022/09/08 00:32:13;;;;;;;23.75;15.13;;;;;;;22.17;100.00;100104.97;4997774;28;20061;-89
2022/09/08 00:34:39;;;;;;;28.15;16.25;;;;;;;22.26;100.00;100082.97;5014770;28;20038;-90
2022/09/08 00:37:04;;;;;;;25.95;15.52;;;;;;;22.30;100.00;100092.19;5014841;28;20034;-91
2022/09/08 00:39:30;;;;;;;26.83;15.57;;;;;;;22.21;100.00;100093.66;4997582;28;20045;-90
2022/09/08 00:41:56;;;;;;;27.10;16.00;;;;;;;22.22;100.00;100095.31;5015072;28;20048;-86
2022/09/08 00:44:50;;;;;;;22.25;15.75;;;;;;;22.17;100.00;100099.56;5013582;28;20122;-85
2022/09/08 00:47:24;;;;;;;28.15;16.90;;;;;;;22.17;100.00;100104.19;5013693;28;20057;-83
2022/09/08 00:50:00;;;;;;;34.42;16.77;;;;;;;22.15;100.00;100107.09;5013376;28;20042;-85
2022/09/08 00:52:30;;;;;;;24.80;15.48;;;;;;;22.22;100.00;100101.53;5013163;28;20076;-84
2022/09/08 00:54:56;;;;;;;28.33;17.33;;;;;;;22.14;100.00;100105.47;5013311;28;20453;-84
2022/09/08 00:57:21;;;;;;;28.77;16.02;;;;;;;21.96;100.00;100097.66;5013507;28;20148;-85
2022/09/08 00:59:48;;;;;;;26.20;16.45;;;;;;;22.09;100.00;100105.41;5013302;28;20558;-86
2022/09/08 01:02:25;;;;;;;29.55;16.58;;;;;;;22.21;100.00;100096.38;5013158;28;20449;-85
2022/09/08 01:05:07;;;;;;;27.20;16.83;;;;;;;22.02;100.00;100083.16;5013225;28;20126;-84
2022/09/08 01:13:38;;;;;;;25.90;18.13;;;;;;;21.66;100.00;100072.84;5023498;28;20053;-79
2022/09/08 01:16:08;;;;;;;31.48;19.10;;;;;;;21.69;100.00;100071.53;5018119;28;20032;-85
2022/09/08 01:18:36;;;;;;;27.38;19.02;;;;;;;21.94;100.00;100066.59;5013863;28;20037;-85
2022/09/08 01:21:06;;;;;;;30.65;18.30;;;;;;;21.86;100.00;100070.47;5013363;28;20153;-84
2022/09/08 01:23:53;;;;;;;28.65;18.13;;;;;;;21.84;100.00;100056.41;5015599;28;20042;-84
2022/09/08 01:26:38;;;;;;;27.10;18.10;;;;;;;21.89;100.00;100061.91;5015901;28;20517;-85
2022/09/08 01:29:07;;;;;;;29.80;18.33;;;;;;;21.84;100.00;100056.41;5018770;28;20069;-83
2022/09/08 01:31:40;;;;;;;24.35;17.25;;;;;;;21.76;100.00;100048.75;5019969;28;20026;-83
2022/09/08 01:34:06;;;;;;;27.30;18.35;;;;;;;21.75;100.00;100046.28;5019692;28;20481;-82
2022/09/08 01:36:31;;;;;;;23.85;17.80;;;;;;;21.79;100.00;100052.81;5018363;28;20034;-82
2022/09/08 01:38:57;;;;;;;26.88;17.77;;;;;;;21.94;100.00;100037.69;5017669;28;20038;-83
2022/09/08 01:41:22;;;;;;;25.83;17.00;;;;;;;22.02;100.00;100031.06;5015890;28;20034;-81
2022/09/08 01:43:48;;;;;;;24.30;17.40;;;;;;;21.89;100.00;100048.44;5030972;28;20038;-81
2022/09/08 01:46:13;;;;;;;28.67;17.10;;;;;;;21.96;100.00;100057.16;5031827;28;20038;-83
2022/09/08 01:48:39;;;;;;;26.80;18.73;;;;;;;21.83;100.00;100079.06;5031470;28;20034;-80
2022/09/08 01:51:06;;;;;;;29.35;19.02;;;;;;;21.77;100.00;100066.56;5019938;28;20068;-83
2022/09/08 01:53:32;;;;;;;31.83;18.88;;;;;;;21.70;100.00;100065.91;5017221;28;20117;-83
2022/09/08 01:55:58;;;;;;;40.53;18.92;;;;;;;21.72;100.00;100058.38;5017009;28;20113;-84
2022/09/08 01:58:25;;;;;;;25.63;18.75;;;;;;;21.67;100.00;100069.88;5016644;28;20042;-84
2022/09/08 02:00:51;;;;;;;27.95;19.35;;;;;;;21.85;100.00;100058.03;5016796;28;20053;-82
2022/09/08 02:03:17;;;;;;;35.70;18.42;;;;;;;21.82;100.00;100066.63;5016369;28;20061;-84
2022/09/08 02:05:43;;;;;;;29.40;19.60;;;;;;;21.63;100.00;100084.13;5016351;28;20503;-83
2022/09/08 02:08:10;;;;;;;33.20;21.27;;;;;;;21.55;100.00;100071.03;5016555;28;20034;-84
2022/09/08 02:10:36;;;;;;;27.42;19.80;;;;;;;21.67;100.00;100079.88;5016640;28;20040;-80
2022/09/08 02:13:02;;;;;;;29.05;20.38;;;;;;;21.52;100.00;100071.53;4998483;28;20038;-83
2022/09/08 02:15:28;;;;;;;28.95;20.27;;;;;;;21.52;100.00;100044.56;5016341;28;20034;-82
2022/09/08 02:17:54;;;;;;;34.75;20.23;;;;;;;21.54;100.00;100045.16;5016306;28;20074;-85
2022/09/08 02:20:21;;;;;;;27.20;19.60;;;;;;;21.59;100.00;100037.13;5016102;28;20112;-83
2022/09/08 02:22:46;;;;;;;34.33;19.85;;;;;;;21.60;100.00;100030.69;5016613;28;20033;-82
2022/09/08 02:25:12;;;;;;;32.63;19.80;;;;;;;21.69;100.00;100031.91;5015949;28;20113;-84
2022/09/08 02:27:37;;;;;;;26.70;20.23;;;;;;;21.61;100.00;100032.28;5016159;28;20488;-83
2022/09/08 02:30:07;;;;;;;31.02;20.27;;;;;;;21.55;100.00;100036.81;5015712;28;20038;-82
2022/09/08 02:32:35;;;;;;;31.55;20.00;;;;;;;21.50;100.00;100035.91;5018696;28;20042;-81
2022/09/08 02:35:01;;;;;;;34.53;21.30;;;;;;;21.36;100.00;100021.13;5024663;28;20061;-83
2022/09/08 02:37:26;;;;;;;31.92;21.58;;;;;;;21.31;100.00;100021.84;5016077;28;20034;-85
2022/09/08 02:39:52;;;;;;;36.15;21.73;;;;;;;21.30;100.00;100011.31;5015707;28;20030;-83
2022/09/08 02:42:17;;;;;;;30.60;21.85;;;;;;;21.23;100.00;99994.47;5015803;28;20042;-83
2022/09/08 02:44:44;;;;;;;36.28;23.42;;;;;;;21.20;100.00;99982.31;5016076;28;20121;-84
2022/09/08 02:47:10;;;;;;;33.15;22.15;;;;;;;21.39;100.00;99978.31;5015986;28;20392;-85
2022/09/08 02:49:35;;;;;;;36.60;22.10;;;;;;;21.47;100.00;99974.38;5015672;28;20033;-85
2022/09/08 02:52:01;;;;;;;30.10;20.25;;;;;;;21.56;100.00;99975.59;5015484;28;20508;-82
2022/09/08 02:54:26;;;;;;;28.55;20.05;;;;;;;21.55;100.00;99973.97;5016093;28;20030;-83
2022/09/08 02:56:52;;;;;;;31.08;21.33;;;;;;;21.51;100.00;99979.03;5016716;28;20033;-82
2022/09/08 02:59:18;;;;;;;35.70;22.92;;;;;;;21.33;100.00;99946.94;5015542;28;20045;-82
2022/09/08 03:01:43;;;;;;;34.10;23.90;;;;;;;21.47;100.00;99920.47;5015931;28;20097;-84
2022/09/08 03:04:10;;;;;;;39.35;23.40;;;;;;;21.32;100.00;99923.75;5015736;28;20492;-83
2022/09/08 03:06:37;;;;;;;34.13;25.02;;;;;;;21.30;100.00;99906.19;5015543;28;20109;-82
2022/09/08 03:09:03;;;;;;;33.63;24.63;;;;;;;21.39;100.00;99891.22;5015303;28;20042;-85
2022/09/08 03:11:28;;;;;;;36.47;25.95;;;;;;;21.22;100.00;99868.84;5015376;28;20108;-81
2022/09/08 03:13:54;;;;;;;39.90;25.70;;;;;;;21.20;100.00;99860.22;5015275;28;20473;-81
2022/09/08 03:16:20;;;;;;;40.72;26.58;;;;;;;21.12;100.00;99831.78;5015089;28;20080;-85
2022/09/08 03:18:45;;;;;;;42.03;26.65;;;;;;;21.16;100.00;99848.28;5015203;28;20459;-85
2022/09/08 03:21:12;;;;;;;34.75;25.13;;;;;;;21.17;100.00;99852.63;5015147;28;20042;-84
2022/09/08 03:23:38;;;;;;;39.90;28.25;;;;;;;21.06;100.00;99838.16;5015153;28;20030;-83
2022/09/08 03:26:06;;;;;;;44.42;27.20;;;;;;;21.12;100.00;99831.78;5014917;28;20034;-81
2022/09/08 03:28:32;;;;;;;44.72;28.23;;;;;;;21.17;100.00;99836.47;5014818;28;20384;-84
2022/09/08 03:30:58;;;;;;;50.15;30.30;;;;;;;20.99;100.00;99842.88;5015142;28;20038;-83
2022/09/08 03:33:24;;;;;;;42.35;28.73;;;;;;;20.93;100.00;99842.00;5013767;28;20042;-81
2022/09/08 03:35:49;;;;;;;43.65;28.52;;;;;;;21.07;100.00;99845.19;5014927;28;20034;-85
2022/09/08 03:38:17;;;;;;;40.80;29.92;;;;;;;21.05;100.00;99850.81;5014641;28;20114;-81
2022/09/08 03:40:43;;;;;;;41.70;29.42;;;;;;;21.06;100.00;99865.91;5014398;28;20061;-82
2022/09/08 03:43:09;;;;;;;46.35;30.65;;;;;;;21.07;100.00;99872.13;5012869;28;20073;-82
2022/09/08 03:45:35;;;;;;;43.33;30.10;;;;;;;21.02;100.00;99872.03;5014146;28;20042;-82
2022/09/08 03:48:01;;;;;;;43.50;30.63;;;;;;;21.06;100.00;99889.34;5014250;28;20037;-81
2022/09/08 03:50:26;;;;;;;42.85;29.60;;;;;;;21.27;100.00;99883.25;4996205;28;20421;-81
2022/09/08 03:52:52;;;;;;;41.28;29.92;;;;;;;21.33;100.00;99881.44;5022741;28;20335;-81
2022/09/08 03:55:18;;;;;;;46.95;28.83;;;;;;;21.43;100.00;99886.97;5018604;28;20041;-85
2022/09/08 03:57:47;;;;;;;48.70;29.15;;;;;;;21.51;100.00;99900.03;5014772;28;20038;-83
2022/09/08 04:00:14;;;;;;;42.35;29.98;;;;;;;21.33;100.00;99908.38;5014014;28;20496;-84
2022/09/08 04:02:39;;;;;;;52.60;29.98;;;;;;;21.36;100.00;99907.88;5014365;28;20054;-81
2022/09/08 04:05:05;;;;;;;49.38;29.90;;;;;;;21.49;100.00;99902.16;5013947;28;20053;-84
2022/09/08 04:07:31;;;;;;;45.72;29.15;;;;;;;21.60;100.00;99904.75;5018792;28;20121;-79
2022/09/08 04:09:57;;;;;;;45.72;30.27;;;;;;;21.46;100.00;99894.56;5029647;28;20030;-82
2022/09/08 04:12:24;;;;;;;48.42;32.63;;;;;;;21.30;100.00;99892.72;5038456;28;20053;-84
2022/09/08 04:14:50;;;;;;;42.72;30.20;;;;;;;21.23;100.00;99883.97;5027079;28;20041;-83
2022/09/08 04:17:17;;;;;;;49.88;31.65;;;;;;;21.32;100.00;99880.59;5013827;28;20029;-81
2022/09/08 04:19:43;;;;;;;48.53;32.58;;;;;;;21.10;100.00;99883.25;5015517;28;20029;-84
2022/09/08 04:22:09;;;;;;;57.92;33.40;;;;;;;21.07;100.00;99888.28;5006548;28;20026;-82
2022/09/08 04:24:34;;;;;;;49.20;31.95;;;;;;;21.06;100.00;99875.88;4996774;28;20034;-82
2022/09/08 04:27:00;;;;;;;52.97;33.28;;;;;;;21.06;100.00;99878.56;4994138;28;20093;-83
2022/09/08 04:29:26;;;;;;;46.35;32.03;;;;;;;21.13;100.00;99861.22;4992813;28;20042;-82
2022/09/08 04:31:52;;;;;;;48.88;31.55;;;;;;;21.21;100.00;99867.25;4994142;28;20118;-80
2022/09/08 04:34:18;;;;;;;47.47;30.77;;;;;;;21.21;100.00;99891.50;4994326;28;20110;-81
2022/09/08 04:36:44;;;;;;;46.50;32.40;;;;;;;21.08;100.00;99919.53;4994067;28;20030;-82
2022/09/08 04:39:10;;;;;;;51.13;30.88;;;;;;;21.15;100.00;99917.53;4993949;28;20038;-81
2022/09/08 04:41:36;;;;;;;45.63;31.30;;;;;;;21.13;100.00;99909.72;4993776;28;20039;-83
2022/09/08 04:44:03;;;;;;;45.65;32.45;;;;;;;21.04;100.00;99923.81;4994390;28;20381;-83
2022/09/08 04:46:31;;;;;;;47.50;31.92;;;;;;;21.17;100.00;99917.31;4993997;28;20038;-82
2022/09/08 04:48:57;;;;;;;48.97;31.08;;;;;;;21.09;100.00;99886.16;4993896;28;20035;-82
2022/09/08 04:51:24;;;;;;;52.10;33.58;;;;;;;21.18;100.00;99878.53;4992505;28;20085;-83
2022/09/08 04:53:53;;;;;;;46.95;33.03;;;;;;;21.17;100.00;99893.06;4994149;28;20034;-83
2022/09/08 04:56:23;;;;;;;45.08;32.10;;;;;;;21.06;100.00;99892.84;4994323;28;20500;-88
2022/09/08 04:58:50;;;;;;;48.88;31.83;;;;;;;21.18;100.00;99889.31;4993162;28;20026;-86
2022/09/08 05:01:23;;;;;;;46.13;31.13;;;;;;;21.16;100.00;99902.19;4994404;28;20034;-88
2022/09/08 05:03:55;;;;;;;46.92;30.67;;;;;;;21.03;100.00;99892.53;4994365;28;20037;-88
2022/09/08 05:06:23;;;;;;;;;;;;;;;21.13;100.00;99898.94;4994895;28;20034;-86
2022/09/08 05:08:51;;;;;;;55.30;30.38;;;;;;;21.17;100.00;99887.66;4994072;28;19921;-85
2022/09/08 05:11:18;;;;;;;45.78;29.42;;;;;;;21.02;100.00;99891.72;5000059;28;20038;-83
2022/09/08 05:13:44;;;;;;;41.60;30.10;;;;;;;20.95;100.00;99899.13;5005681;28;20039;-88
2022/09/08 05:16:18;;;;;;;51.60;29.52;;;;;;;21.00;100.00;99904.63;4994788;28;20042;-85
2022/09/08 05:18:48;;;;;;;50.00;29.75;;;;;;;20.97;100.00;99904.28;4995651;28;20031;-87
2022/09/08 05:21:14;;;;;;;49.53;28.60;;;;;;;21.04;100.00;99895.00;4994590;28;20114;-87
2022/09/08 05:23:40;;;;;;;41.97;28.17;;;;;;;21.34;100.00;99899.25;4994700;28;20065;-88
2022/09/08 05:26:09;;;;;;;39.20;27.10;;;;;;;21.34;100.00;99894.66;4993017;28;20066;-86
2022/09/08 05:28:37;;;;;;;41.40;26.80;;;;;;;21.28;100.00;99900.25;4994215;28;20034;-89
2022/09/08 05:31:03;;;;;;;44.85;28.77;;;;;;;21.22;100.00;99890.41;4993764;28;20113;-85
2022/09/08 05:33:30;;;;;;;45.50;28.92;;;;;;;21.15;100.00;99885.19;4994892;28;20185;-89
2022/09/08 05:35:56;;;;;;;44.00;29.25;;;;;;;21.23;100.00;99886.66;4995816;28;20065;-88
2022/09/08 05:38:21;;;;;;;52.28;30.02;;;;;;;21.12;100.00;99908.06;4995248;28;20034;-87
2022/09/08 05:40:47;;;;;;;43.50;28.52;;;;;;;21.07;100.00;99899.88;4993348;28;20157;-85
2022/09/08 05:43:14;;;;;;;45.22;29.75;;;;;;;21.01;100.00;99902.75;4995138;28;20452;-88
2022/09/08 05:45:46;;;;;;;40.75;30.42;;;;;;;20.95;100.00;99892.94;4995481;28;20058;-87
2022/09/08 05:48:11;;;;;;;45.53;31.07;;;;;;;21.08;100.00;99896.09;4997769;28;20041;-84
2022/09/08 05:50:37;;;;;;;45.53;30.88;;;;;;;21.00;100.00;99901.09;4997720;28;20113;-86
2022/09/08 05:53:03;;;;;;;48.10;31.75;;;;;;;20.97;100.00;99902.41;5000509;28;20034;-86
2022/09/08 05:55:29;;;;;;;49.97;33.35;;;;;;;21.10;100.00;99918.28;4996559;28;20030;-89
2022/09/08 05:57:56;;;;;;;51.58;33.28;;;;;;;21.19;100.00;99928.63;4993847;28;20354;-90
2022/09/08 06:00:22;;;;;;;46.97;31.95;;;;;;;21.18;100.00;99919.72;4994030;28;20525;-88
2022/09/08 06:02:51;;;;;;;46.88;33.13;;;;;;;21.45;100.00;99911.78;4994076;28;20065;-89
2022/09/08 06:05:22;;;;;;;48.20;31.40;;;;;;;21.55;100.00;99920.03;4995746;28;20042;-90
2022/09/08 06:07:48;;;;;;;49.60;32.25;;;;;;;21.42;100.00;99912.28;5010890;28;20030;-90
2022/09/08 06:10:17;;;;;;;46.25;31.10;;;;;;;21.61;100.00;99911.75;5016263;28;20037;-86
2022/09/08 06:12:46;;;;;;;49.75;31.95;;;;;;;21.54;100.00;99900.31;5014262;28;20049;-86
2022/09/08 06:15:14;;;;;;;44.67;28.77;;;;;;;21.72;100.00;99901.09;5017915;28;20030;-91
2022/09/08 06:17:40;;;;;;;46.03;31.38;;;;;;;21.50;100.00;99895.69;5016958;28;20129;-93
2022/09/08 06:20:07;;;;;;;47.67;29.67;;;;;;;21.78;100.00;99900.09;5018698;28;20112;-90
2022/09/08 06:22:35;;;;;;;45.40;28.90;;;;;;;22.13;100.00;99900.59;5000534;28;20044;-90
2022/09/08 06:25:01;;;;;;;45.63;25.77;;;;;;;22.12;100.00;99899.75;5017882;28;20034;-91
2022/09/08 06:28:00;;;;;;;42.75;26.05;;;;;;;22.34;100.00;99898.94;5020512;28;20093;-91
2022/09/08 06:30:25;;;;;;;40.67;25.02;;;;;;;22.80;100.00;99901.03;5029826;28;20045;-93
2022/09/08 06:32:59;;;;;;;41.70;24.27;;;;;;;22.89;100.00;99895.97;5036753;28;20042;-92
2022/09/08 06:35:40;;;;;;;37.65;23.25;;;;;;;23.24;100.00;99895.41;5002327;28;20034;-92
2022/09/08 06:38:31;;;;;;;44.78;24.40;;;;;;;23.69;100.00;99890.31;5000318;28;20096;-90
2022/09/08 06:41:09;;;;;;;40.85;22.17;;;;;;;23.77;100.00;99887.09;5051701;23;20061;-93
2022/09/08 06:44:16;;;;;;;34.78;23.33;;;;;;;23.80;100.00;99886.56;5030454;28;20044;-91
2022/09/08 06:47:01;;;;;;;35.92;21.55;;;;;;;23.83;100.00;99875.22;5021148;28;20076;-94
2022/09/08 06:49:28;;;;;;;42.17;22.08;;;;;;;24.16;100.00;99871.34;5006266;28;20053;-90
2022/09/08 06:52:15;;;;;;;37.92;20.70;;;;;;;24.87;100.00;99872.25;5004631;28;20034;-92
2022/09/08 06:55:06;;;;;;;33.90;19.58;;;;;;;24.78;100.00;99868.44;5006871;28;20605;-91
2022/09/08 06:57:59;;;;;;;35.88;21.13;;;;;;;24.37;100.00;99864.88;5016397;28;20034;-90
2022/09/08 07:00:44;;;;;;;;;;;;;;;24.42;100.00;99872.19;5008663;28;20018;-90
2022/09/08 07:03:34;;;;;;;42.42;20.45;;;;;;;24.87;100.00;99858.69;5023544;28;19906;-91
2022/09/08 07:05:59;;;;;;;35.15;19.40;;;;;;;25.41;100.00;99853.47;5039128;28;20042;-91
2022/09/08 07:08:31;;;;;;;31.83;18.65;;;;;;;25.53;100.00;99856.72;5016867;28;20045;-90
2022/09/08 07:11:28;;;;;;;28.63;17.93;;;;;;;25.62;100.00;99856.97;5000192;28;20048;-89
2022/09/08 07:14:11;;;;;;;34.30;17.88;;;;;;;25.91;100.00;99846.25;5004936;28;20724;-91
2022/09/08 07:17:00;;;;;;;25.55;15.45;;;;;;;26.36;100.00;99847.91;5016485;28;20037;-89
2022/09/08 07:19:34;;;;;;;31.70;16.98;;;;;;;26.22;100.00;99852.38;5016956;28;20087;-90
2022/09/08 07:22:37;;;;;;;32.00;17.80;;;;;;;26.52;100.00;99863.84;4999634;28;20038;-90
2022/09/08 07:25:15;;;;;;;33.90;16.85;;;;;;;26.30;100.00;99857.22;5015727;28;20030;-92
2022/09/08 07:27:43;;;;;;;26.55;13.30;;;;;;;27.17;100.00;99848.91;5015881;28;20052;-92
2022/09/08 07:30:18;;;;;;;26.50;11.18;;;;;;;27.22;100.00;99851.56;5023263;28;20049;-90
2022/09/08 07:32:49;;;;;;;25.50;11.55;;;;;;;27.59;100.00;99841.94;5021572;28;20064;-91
2022/09/08 07:35:28;;;;;;;30.67;9.30;;;;;;;28.52;100.00;99852.97;5021183;28;20037;-91
2022/09/08 07:37:59;;;;;;;21.98;10.20;;;;;;;28.16;100.00;99852.69;5026181;28;20088;-90
2022/09/08 07:40:35;;;;;;;24.70;8.65;;;;;;;28.14;100.00;99852.16;5035981;28;20042;-89
2022/09/08 07:43:01;;;;;;;18.33;6.80;;;;;;;27.99;100.00;99854.25;5036126;28;20060;-90
2022/09/08 07:45:45;;;;;;;14.50;4.63;;;;;;;28.01;100.00;99855.56;5031929;28;20038;-91
2022/09/08 07:48:19;;;;;;;22.20;4.78;;;;;;;27.91;100.00;99852.97;5016445;28;20045;-91
2022/09/08 07:50:54;;;;;;;15.80;4.13;;;;;;;27.89;100.00;99849.75;5032724;28;20021;-91
2022/09/08 07:53:38;;;;;;;13.60;4.13;;;;;;;27.65;100.00;99859.84;5029214;28;20033;-91
2022/09/08 07:56:09;;;;;;;13.50;3.30;;;;;;;27.77;100.00;99852.09;5014943;28;20041;-92
2022/09/08 07:59:24;;;;;;;12.20;2.95;;;;;;;28.10;100.00;99851.13;5014780;28;20060;-89
2022/09/08 08:01:55;;;;;;;14.05;2.63;;;;;;;28.45;100.00;99859.88;4957920;28;20119;-92
2022/09/08 08:04:50;;;;;;;15.82;3.35;;;;;;;28.85;96.18;99862.00;4974046;28;20069;-91
2022/09/08 08:07:50;;;;;;;17.52;2.47;;;;;;;28.76;98.05;99869.25;4974003;28;20076;-89
2022/09/08 08:10:19;;;;;;;11.93;2.95;;;;;;;28.68;96.67;99868.00;4926332;28;20059;-92
2022/09/08 08:12:44;;;;;;;17.08;3.47;;;;;;;29.20;95.11;99864.09;5005530;28;20046;-93
2022/09/08 08:15:39;;;;;;;10.63;2.35;;;;;;;29.88;90.54;99873.50;5016186;28;20091;-92
2022/09/08 08:18:13;;;;;;;9.98;2.40;;;;;;;30.18;86.55;99872.84;5014967;28;20041;-91
2022/09/08 08:20:58;;;;;;;19.67;2.70;;;;;;;30.72;84.90;99875.44;4997372;28;20033;-92
2022/09/08 08:23:27;;;;;;;17.52;2.10;;;;;;;31.37;79.97;99874.09;4997139;28;20041;-91
2022/09/08 08:26:07;;;;;;;9.65;2.50;;;;;;;31.86;76.94;99882.03;5013285;28;20030;-90
2022/09/08 08:28:40;;;;;;;13.23;2.83;;;;;;;31.64;76.23;99879.38;4997015;28;20036;-90
2022/09/08 08:31:30;;;;;;;9.63;2.40;;;;;;;31.70;75.30;99880.84;4998674;28;20080;-91
2022/09/08 08:34:04;;;;;;;13.55;2.58;;;;;;;31.82;74.03;99894.75;5015032;28;20045;-92
2022/09/08 08:36:36;;;;;;;11.93;2.28;;;;;;;32.00;74.64;99901.91;5011792;28;20038;-90
2022/09/08 08:39:17;;;;;;;;;;;;;;;32.04;78.43;99905.66;5014218;28;20096;-94
2022/09/08 08:41:45;;;;;;;17.13;4.82;;;;;;;31.40;83.81;99920.00;5013374;28;19921;-90
2022/09/08 08:44:23;;;;;;;16.80;4.88;;;;;;;31.29;85.59;99929.63;5013559;28;20025;-92
2022/09/08 08:47:21;;;;;;;17.13;6.40;;;;;;;31.41;84.94;99938.06;4997707;28;20057;-92
2022/09/08 08:50:08;;;;;;;20.50;7.55;;;;;;;31.06;89.45;99943.31;4987647;28;20056;-93
2022/09/08 08:52:53;;;;;;;21.92;9.18;;;;;;;30.92;89.84;99948.03;4992743;28;20482;-91
2022/09/08 08:55:36;;;;;;;17.35;10.25;;;;;;;30.41;93.20;99947.56;4979909;28;20160;-92
2022/09/08 08:58:25;;;;;;;23.48;10.55;;;;;;;29.91;96.79;99966.63;5011346;28;20034;-92
2022/09/08 09:00:57;;;;;;;26.25;10.75;;;;;;;29.39;100.00;99964.28;4999539;28;20477;-91
2022/09/08 09:03:41;;;;;;;21.73;11.07;;;;;;;29.18;100.00;99966.50;4996709;28;20030;-92
2022/09/08 09:06:37;;;;;;;25.65;11.25;;;;;;;28.56;100.00;99962.25;4996897;28;20133;-91
2022/09/08 09:09:40;;;;;;;19.48;11.07;;;;;;;28.23;100.00;99959.41;5022024;28;20085;-90
2022/09/08 09:12:28;;;;;;;21.85;8.85;;;;;;;28.64;100.00;99967.03;5028914;28;20038;-91
2022/09/08 09:15:18;;;;;;;24.42;10.10;;;;;;;28.97;100.00;99968.75;5015599;28;20444;-92
2022/09/08 09:17:56;;;;;;;25.40;10.05;;;;;;;29.19;100.00;99976.31;5018001;28;20033;-91
2022/09/08 09:20:45;;;;;;;26.75;10.45;;;;;;;29.51;99.06;99972.78;5013259;28;20039;-91
2022/09/08 09:23:22;;;;;;;21.20;9.52;;;;;;;29.80;97.23;99965.16;5014290;28;20037;-91
2022/09/08 09:26:21;;;;;;;39.05;10.05;;;;;;;29.89;95.32;99971.59;5015194;28;20033;-91
2022/09/08 09:29:24;;;;;;;22.98;8.80;;;;;;;29.96;95.48;99974.69;4975510;28;20061;-90
2022/09/08 09:32:01;;;;;;;14.73;7.85;;;;;;;29.86;93.56;99972.19;4951516;28;20171;-91
2022/09/08 09:34:45;;;;;;;19.52;8.55;;;;;;;30.59;89.16;99968.50;4975858;28;20502;-93
2022/09/08 09:37:43;;;;;;;17.90;7.60;;;;;;;30.81;87.87;99970.47;4980046;28;20042;-93
2022/09/08 09:40:12;;;;;;;16.75;6.82;;;;;;;31.15;84.42;99979.00;4993226;28;20038;-92
2022/09/08 09:42:56;;;;;;;23.23;7.60;;;;;;;31.40;83.76;99969.31;5012819;28;20034;-90
2022/09/08 09:45:46;;;;;;;18.17;6.25;;;;;;;32.11;79.90;99971.00;5016713;28;20088;-92
2022/09/08 09:48:50;;;;;;;20.33;5.03;;;;;;;32.25;78.03;99972.47;5022748;28;20054;-93
2022/09/08 09:51:34;;;;;;;16.65;5.20;;;;;;;32.20;77.41;99967.16;5006953;28;20046;-91
2022/09/08 09:54:27;;;;;;;13.85;4.95;;;;;;;32.30;75.63;99966.06;5008597;28;20065;-90
2022/09/08 09:57:06;;;;;;;18.60;5.05;;;;;;;32.51;66.98;99969.00;5021448;28;20516;-91
2022/09/08 09:59:43;;;;;;;22.80;5.95;;;;;;;32.70;67.67;99964.03;5027460;28;20049;-91
2022/09/08 10:02:15;;;;;;;14.55;5.70;;;;;;;32.78;64.98;99963.22;5045741;28;20072;-89
2022/09/08 10:05:02;;;;;;;15.95;5.38;;;;;;;32.55;65.16;99961.72;5030316;28;20041;-93
2022/09/08 10:07:46;;;;;;;19.13;4.85;;;;;;;33.41;61.92;99959.78;5023659;28;20125;-88
2022/09/08 10:10:41;;;;;;;18.20;5.55;;;;;;;33.20;61.75;99962.44;5028407;28;20057;-88
2022/09/08 10:13:28;;;;;;;20.58;3.90;;;;;;;33.36;57.34;99959.16;4991410;28;20031;-90
2022/09/08 10:16:22;;;;;;;18.77;3.30;;;;;;;33.88;55.65;99960.63;4959223;28;20047;-92
2022/09/08 10:19:09;;;;;;;18.00;3.55;;;;;;;34.24;54.65;99952.69;5024189;28;20027;-93
2022/09/08 10:22:00;;;;;;;13.82;3.58;;;;;;;34.77;52.98;99960.28;5002376;28;20092;-92
2022/09/08 10:25:07;;;;;;;12.50;3.55;;;;;;;34.53;52.89;99953.81;5020166;28;20038;-94
2022/09/08 10:28:01;;;;;;;16.15;2.90;;;;;;;35.18;51.42;99958.66;4977196;28;20039;-89
2022/09/08 10:30:45;;;;;;;9.15;2.90;;;;;;;36.01;46.54;99963.88;4985782;28;20038;-91
2022/09/08 10:33:26;;;;;;;11.75;3.00;;;;;;;35.79;44.99;99956.88;5018166;28;20048;-92
2022/09/08 10:35:53;;;;;;;16.02;2.70;;;;;;;35.49;44.84;99960.94;5016545;28;20034;-91
2022/09/08 10:38:46;;;;;;;10.13;3.15;;;;;;;35.34;45.74;99947.78;5017450;28;20036;-90
2022/09/08 10:41:46;;;;;;;10.63;2.63;;;;;;;35.58;45.72;99951.41;5017918;28;20025;-90
2022/09/08 10:44:33;;;;;;;11.77;3.20;;;;;;;34.95;45.83;99943.63;5017021;28;20149;-94
2022/09/08 10:47:36;;;;;;;12.20;2.95;;;;;;;34.65;47.53;99945.66;5017938;28;20121;-91
2022/09/08 10:50:30;;;;;;;14.30;3.13;;;;;;;35.31;48.04;99934.69;5017287;28;20038;-93
2022/09/08 10:53:18;;;;;;;12.82;2.70;;;;;;;36.01;43.49;99941.81;5011641;28;20461;-89
2022/09/08 10:56:05;;;;;;;13.38;2.75;;;;;;;36.01;44.92;99934.34;4997521;28;20459;-91
2022/09/08 10:59:07;;;;;;;15.85;2.50;;;;;;;36.49;41.79;99930.75;5013026;28;20112;-89
2022/09/08 11:01:51;;;;;;;20.50;3.35;;;;;;;36.32;41.62;99919.97;5015190;28;20092;-90
2022/09/08 11:04:54;;;;;;;10.60;2.40;;;;;;;36.37;41.23;99927.19;5011411;28;20120;-87
2022/09/08 11:07:45;;;;;;;11.65;2.95;;;;;;;36.08;41.86;99926.31;5009092;28;20037;-90
2022/09/08 11:10:37;;;;;;;13.85;3.00;;;;;;;36.54;40.88;99925.00;5015293;28;20398;-89
2022/09/08 11:13:34;;;;;;;11.68;2.67;;;;;;;36.76;39.97;99918.94;5019188;28;20404;-90
2022/09/08 11:16:15;;;;;;;11.07;2.95;;;;;;;37.41;38.35;99932.56;5018449;28;20040;-91
2022/09/08 11:18:55;;;;;;;11.65;2.55;;;;;;;37.06;38.13;99918.59;5018244;28;20075;-89
2022/09/08 11:21:28;;;;;;;8.52;2.08;;;;;;;37.01;38.98;99914.16;5017132;28;20543;-89
2022/09/08 11:24:25;;;;;;;9.73;2.58;;;;;;;36.96;38.54;99919.88;5015008;28;20435;-90
2022/09/08 11:27:05;;;;;;;9.68;2.35;;;;;;;37.04;37.92;99921.72;5019893;28;20038;-90
2022/09/08 11:29:38;;;;;;;15.15;2.55;;;;;;;36.81;38.30;99912.38;5019919;28;20042;-89
2022/09/08 11:32:15;;;;;;;18.70;2.47;;;;;;;34.59;42.35;99908.44;5001336;28;20125;-90
2022/09/08 11:34:57;;;;;;;11.18;2.40;;;;;;;32.96;46.72;99909.94;5000983;28;20033;-91
2022/09/08 11:37:48;;;;;;;11.73;2.58;;;;;;;31.99;49.82;99900.28;5000767;28;20080;-90
2022/09/08 11:40:48;;;;;;;8.10;2.27;;;;;;;32.07;49.91;99890.50;5015476;28;20122;-92
2022/09/08 11:51:46;;;;;;;16.92;2.67;;;;;;;33.50;45.48;99891.88;5637403;23;19921;-91
2022/09/08 11:54:15;;;;;;;;;;;;;;;33.02;47.16;99892.16;5031513;28;20033;-92
2022/09/08 11:57:03;;;;;;;15.20;2.85;;;;;;;32.36;48.62;99887.97;5032504;28;19904;-90
2022/09/08 11:59:35;;;;;;;10.88;2.88;;;;;;;31.75;50.89;99886.22;5014394;28;20515;-87
2022/09/08 12:02:27;;;;;;;12.90;2.60;;;;;;;31.26;52.15;99893.53;5026007;28;20034;-89